createdAt,value
2018-03-08T00:00:06.507Z,7.45
2018-03-08T00:01:06.528Z,7.43
2018-03-08T00:02:06.528Z,7.36
2018-03-08T00:03:06.600Z,7.32
2018-03-08T00:04:06.571Z,7.53
2018-03-08T00:05:06.600Z,7.54
2018-03-08T00:06:06.655Z,7.63
2018-03-08T00:07:06.627Z,7.53
2018-03-08T00:08:06.641Z,7.70
2018-03-08T00:09:06.642Z,7.43
2018-03-08T00:10:06.656Z,7.47
2018-03-08T00:11:06.674Z,7.38
2018-03-08T00:12:06.684Z,7.42
2018-03-08T00:13:06.707Z,7.51
2018-03-08T00:14:06.741Z,7.67
2018-03-08T00:15:06.734Z,7.69
2018-03-08T00:16:06.773Z,7.60
2018-03-08T00:17:06.759Z,7.50
2018-03-08T00:18:06.773Z,7.66
2018-03-08T00:19:06.801Z,7.61
2018-03-08T00:20:06.817Z,7.47
2018-03-08T00:21:06.831Z,7.63
2018-03-08T00:22:06.879Z,7.45
2018-03-08T00:23:06.857Z,7.61
2018-03-08T00:24:06.919Z,7.66
2018-03-08T00:25:06.899Z,7.60
2018-03-08T00:26:06.906Z,7.48
2018-03-08T00:27:06.924Z,7.61
2018-03-08T00:28:06.927Z,7.80
2018-03-08T00:29:06.957Z,7.75
2018-03-08T00:30:06.966Z,7.66
2018-03-08T00:31:07.001Z,7.50
2018-03-08T00:32:07.020Z,7.61
2018-03-08T00:33:07.089Z,7.56
2018-03-08T00:34:07.027Z,7.60
2018-03-08T00:35:07.043Z,7.50
2018-03-08T00:36:07.064Z,7.47
2018-03-08T00:37:07.073Z,7.47
2018-03-08T00:38:07.157Z,7.39
2018-03-08T00:39:07.107Z,7.31
2018-03-08T00:40:07.113Z,7.25
2018-03-08T00:41:07.140Z,7.33
2018-03-08T00:42:07.186Z,7.38
2018-03-08T00:43:07.172Z,7.43
2018-03-08T00:44:07.191Z,7.58
2018-03-08T00:45:07.207Z,7.53
2018-03-08T00:46:07.205Z,7.63
2018-03-08T00:47:07.259Z,7.63
2018-03-08T00:48:07.255Z,7.11
2018-03-08T00:49:07.340Z,7.18
2018-03-08T00:50:07.288Z,7.23
2018-03-08T00:51:07.316Z,7.25
2018-03-08T00:52:07.305Z,7.21
2018-03-08T00:53:07.305Z,7.32
2018-03-08T00:54:07.351Z,7.35
2018-03-08T00:55:07.353Z,7.43
2018-03-08T00:56:07.362Z,7.56
2018-03-08T00:57:07.371Z,7.53
2018-03-08T00:58:07.418Z,7.45
2018-03-08T00:59:07.408Z,7.15
2018-03-08T01:00:07.506Z,7.38
2018-03-08T01:01:07.438Z,7.33
2018-03-08T01:02:07.447Z,7.20
2018-03-08T01:03:07.483Z,7.02
2018-03-08T01:04:07.476Z,6.89
2018-03-08T01:05:07.538Z,7.06
2018-03-08T01:06:07.583Z,7.14
2018-03-08T01:07:07.550Z,7.15
2018-03-08T01:08:07.530Z,7.05
2018-03-08T01:09:07.571Z,7.18
2018-03-08T01:10:07.568Z,7.28
2018-03-08T01:11:07.607Z,7.33
2018-03-08T01:12:07.665Z,7.38
2018-03-08T01:13:07.614Z,7.31
2018-03-08T01:14:07.621Z,7.28
2018-03-08T01:15:07.662Z,7.20
2018-03-08T01:16:07.661Z,7.07
2018-03-08T01:17:07.687Z,7.00
2018-03-08T01:18:07.701Z,7.11
2018-03-08T01:19:07.704Z,6.99
2018-03-08T01:20:07.743Z,7.13
2018-03-08T01:21:07.758Z,7.13
2018-03-08T01:22:07.747Z,7.14
2018-03-08T01:23:07.782Z,6.93
2018-03-08T01:24:07.796Z,7.11
2018-03-08T01:25:07.808Z,7.24
2018-03-08T01:26:07.821Z,7.21
2018-03-08T01:27:07.821Z,7.15
2018-03-08T01:28:07.834Z,6.92
2018-03-08T01:29:07.892Z,7.11
2018-03-08T01:30:07.900Z,7.15
2018-03-08T01:31:07.908Z,7.18
2018-03-08T01:32:08.571Z,7.20
2018-03-08T01:33:07.947Z,7.29
2018-03-08T01:34:07.932Z,7.17
2018-03-08T01:35:07.946Z,7.13
2018-03-08T01:36:07.980Z,7.15
2018-03-08T01:37:07.992Z,7.36
2018-03-08T01:38:07.985Z,7.18
2018-03-08T01:39:08.032Z,7.13
2018-03-08T01:40:08.025Z,7.20
2018-03-08T01:41:08.067Z,7.18
2018-03-08T01:42:08.051Z,7.15
2018-03-08T01:43:08.087Z,7.33
2018-03-08T01:44:08.075Z,7.18
2018-03-08T01:45:08.157Z,7.02
2018-03-08T01:46:08.120Z,6.88
2018-03-08T01:47:08.124Z,6.96
2018-03-08T01:48:08.137Z,6.82
2018-03-08T01:49:08.171Z,6.77
2018-03-08T01:50:08.173Z,6.79
2018-03-08T01:51:08.183Z,6.49
2018-03-08T01:52:08.214Z,6.60
2018-03-08T01:53:08.216Z,6.59
2018-03-08T01:54:08.235Z,6.67
2018-03-08T01:55:08.257Z,6.67
2018-03-08T01:56:08.299Z,6.70
2018-03-08T01:57:08.311Z,6.84
2018-03-08T01:58:08.284Z,6.96
2018-03-08T01:59:08.307Z,6.93
2018-03-08T02:00:08.327Z,6.97
2018-03-08T02:01:08.334Z,6.85
2018-03-08T02:02:08.354Z,6.67
2018-03-08T02:03:08.367Z,6.69
2018-03-08T02:04:08.380Z,6.56
2018-03-08T02:05:08.390Z,6.60
2018-03-08T02:06:08.413Z,6.44
2018-03-08T02:07:08.416Z,6.33
2018-03-08T02:08:08.461Z,6.36
2018-03-08T02:09:08.453Z,6.44
2018-03-08T02:10:08.470Z,6.62
2018-03-08T02:11:08.492Z,6.81
2018-03-08T02:12:08.488Z,6.74
2018-03-08T02:13:08.526Z,6.70
2018-03-08T02:14:08.525Z,6.70
2018-03-08T02:15:08.564Z,6.81
2018-03-08T02:16:08.560Z,6.81
2018-03-08T02:17:08.566Z,6.70
2018-03-08T02:18:08.619Z,6.74
2018-03-08T02:19:08.606Z,6.87
2018-03-08T02:20:08.632Z,6.77
2018-03-08T02:21:08.622Z,6.92
2018-03-08T02:22:08.644Z,6.78
2018-03-08T02:23:08.660Z,6.72
2018-03-08T02:24:08.677Z,6.72
2018-03-08T02:25:08.702Z,6.78
2018-03-08T02:26:08.700Z,6.62
2018-03-08T02:27:08.753Z,6.41
2018-03-08T02:28:08.736Z,6.27
2018-03-08T02:29:08.756Z,6.36
2018-03-08T02:30:08.770Z,6.60
2018-03-08T02:31:08.782Z,6.62
2018-03-08T02:32:08.791Z,6.64
2018-03-08T02:33:08.812Z,6.69
2018-03-08T02:34:08.831Z,6.72
2018-03-08T02:35:08.833Z,6.82
2018-03-08T02:36:08.850Z,6.81
2018-03-08T02:37:08.872Z,6.70
2018-03-08T02:38:08.921Z,6.77
2018-03-08T02:39:08.938Z,6.78
2018-03-08T02:40:08.903Z,6.77
2018-03-08T02:41:08.915Z,6.70
2018-03-08T02:42:08.954Z,6.77
2018-03-08T02:43:08.987Z,6.57
2018-03-08T02:44:08.965Z,6.36
2018-03-08T02:45:08.975Z,6.27
2018-03-08T02:46:09.001Z,6.33
2018-03-08T02:47:09.005Z,6.31
2018-03-08T02:48:09.040Z,6.30
2018-03-08T02:49:09.053Z,6.16
2018-03-08T02:50:09.067Z,6.30
2018-03-08T02:51:09.067Z,6.33
2018-03-08T02:52:09.089Z,6.28
2018-03-08T02:53:09.105Z,6.41
2018-03-08T02:54:09.137Z,6.38
2018-03-08T02:55:09.136Z,6.46
2018-03-08T02:56:09.143Z,6.27
2018-03-08T02:57:09.163Z,6.14
2018-03-08T02:58:09.189Z,6.14
2018-03-08T02:59:09.216Z,6.12
2018-03-08T03:00:09.252Z,6.28
2018-03-08T03:01:09.221Z,6.14
2018-03-08T03:02:09.268Z,6.04
2018-03-08T03:03:09.243Z,6.11
2018-03-08T03:04:09.254Z,5.97
2018-03-08T03:05:09.365Z,6.05
2018-03-08T03:06:09.440Z,6.01
2018-03-08T03:07:09.306Z,6.02
2018-03-08T03:08:09.314Z,6.01
2018-03-08T03:09:09.328Z,6.11
2018-03-08T03:10:09.364Z,6.17
2018-03-08T03:11:09.367Z,6.05
2018-03-08T03:12:09.388Z,5.86
2018-03-08T03:13:09.402Z,5.91
2018-03-08T03:14:09.404Z,5.97
2018-03-08T03:15:09.420Z,6.05
2018-03-08T03:16:09.433Z,6.01
2018-03-08T03:17:09.451Z,6.02
2018-03-08T03:18:09.462Z,5.89
2018-03-08T03:19:09.475Z,5.99
2018-03-08T03:20:09.511Z,6.16
2018-03-08T03:21:09.598Z,6.09
2018-03-08T03:22:09.548Z,6.28
2018-03-08T03:23:09.562Z,6.14
2018-03-08T03:24:09.601Z,6.12
2018-03-08T03:25:09.581Z,6.02
2018-03-08T03:26:09.590Z,5.99
2018-03-08T03:27:09.643Z,5.82
2018-03-08T03:28:09.619Z,5.75
2018-03-08T03:29:09.711Z,5.90
2018-03-08T03:30:09.690Z,5.93
2018-03-08T03:31:09.648Z,5.94
2018-03-08T03:32:09.657Z,6.05
2018-03-08T03:33:09.680Z,6.09
2018-03-08T03:34:09.702Z,6.04
2018-03-08T03:35:09.714Z,6.02
2018-03-08T03:36:09.745Z,5.99
2018-03-08T03:37:09.742Z,5.98
2018-03-08T03:38:09.746Z,5.82
2018-03-08T03:39:09.766Z,6.01
2018-03-08T03:40:09.793Z,5.90
2018-03-08T03:41:09.806Z,5.97
2018-03-08T03:42:09.813Z,5.94
2018-03-08T03:43:09.828Z,6.01
2018-03-08T03:44:09.848Z,6.07
2018-03-08T03:45:09.867Z,6.14
2018-03-08T03:46:09.872Z,6.12
2018-03-08T03:47:09.874Z,6.09
2018-03-08T03:48:09.907Z,6.01
2018-03-08T03:49:09.916Z,6.14
2018-03-08T03:50:09.938Z,5.98
2018-03-08T03:51:09.943Z,6.05
2018-03-08T03:52:10.012Z,6.17
2018-03-08T03:53:10.014Z,6.07
2018-03-08T03:54:10.000Z,6.07
2018-03-08T03:55:10.010Z,6.16
2018-03-08T03:56:10.016Z,6.30
2018-03-08T03:57:10.030Z,6.16
2018-03-08T03:58:10.031Z,6.24
2018-03-08T03:59:10.043Z,6.33
2018-03-08T04:00:10.079Z,6.33
2018-03-08T04:01:10.128Z,6.24
2018-03-08T04:02:10.086Z,6.16
2018-03-08T04:03:10.107Z,6.11
2018-03-08T04:04:10.156Z,6.12
2018-03-08T04:05:10.220Z,6.11
2018-03-08T04:06:10.187Z,6.26
2018-03-08T04:07:10.169Z,6.01
2018-03-08T04:08:10.189Z,6.05
2018-03-08T04:09:10.197Z,6.05
2018-03-08T04:10:10.228Z,6.12
2018-03-08T04:11:10.324Z,6.33
2018-03-08T04:12:10.252Z,6.54
2018-03-08T04:13:10.252Z,6.38
2018-03-08T04:14:10.260Z,6.52
2018-03-08T04:15:10.269Z,6.57
2018-03-08T04:16:10.306Z,6.54
2018-03-08T04:17:10.307Z,6.49
2018-03-08T04:18:10.325Z,6.52
2018-03-08T04:19:10.331Z,6.45
2018-03-08T04:20:10.351Z,6.39
2018-03-08T04:21:10.368Z,6.39
2018-03-08T04:22:10.398Z,6.42
2018-03-08T04:23:10.411Z,6.63
2018-03-08T04:24:10.402Z,6.70
2018-03-08T04:25:10.428Z,6.70
2018-03-08T04:26:10.449Z,6.57
2018-03-08T04:27:10.488Z,6.52
2018-03-08T04:28:10.476Z,6.52
2018-03-08T04:29:10.495Z,6.51
2018-03-08T04:30:10.495Z,6.41
2018-03-08T04:31:10.512Z,6.51
2018-03-08T04:32:10.521Z,6.46
2018-03-08T04:33:10.532Z,6.60
2018-03-08T04:34:10.550Z,6.46
2018-03-08T04:35:10.608Z,6.52
2018-03-08T04:36:10.583Z,6.72
2018-03-08T04:37:10.630Z,6.69
2018-03-08T04:38:10.625Z,6.75
2018-03-08T04:39:10.620Z,6.82
2018-03-08T04:40:10.643Z,6.88
2018-03-08T04:41:10.673Z,6.77
2018-03-08T04:42:10.705Z,6.70
2018-03-08T04:43:10.686Z,6.69
2018-03-08T04:44:10.698Z,6.62
2018-03-08T04:45:10.743Z,6.54
2018-03-08T04:46:10.732Z,6.59
2018-03-08T04:47:10.738Z,6.66
2018-03-08T04:48:10.775Z,6.59
2018-03-08T04:49:10.779Z,6.59
2018-03-08T04:50:10.780Z,6.72
2018-03-08T04:51:10.804Z,6.57
2018-03-08T04:52:10.811Z,6.78
2018-03-08T04:53:10.829Z,6.64
2018-03-08T04:54:10.881Z,6.60
2018-03-08T04:55:10.866Z,6.49
2018-03-08T04:56:10.882Z,6.69
2018-03-08T04:57:10.894Z,6.70
2018-03-08T04:58:10.905Z,6.82
2018-03-08T04:59:10.967Z,6.88
2018-03-08T05:00:10.945Z,6.79
2018-03-08T05:01:10.948Z,6.82
2018-03-08T05:02:10.962Z,6.74
2018-03-08T05:03:10.970Z,6.79
2018-03-08T05:04:10.999Z,6.70
2018-03-08T05:05:11.023Z,6.75
2018-03-08T05:06:11.060Z,6.87
2018-03-08T05:07:11.035Z,6.89
2018-03-08T05:08:11.051Z,6.82
2018-03-08T05:09:11.062Z,6.89
2018-03-08T05:10:11.080Z,6.87
2018-03-08T05:11:11.094Z,6.87
2018-03-08T05:12:11.108Z,6.82
2018-03-08T05:13:11.208Z,6.79
2018-03-08T05:14:11.160Z,6.70
2018-03-08T05:15:11.162Z,6.67
2018-03-08T05:16:11.188Z,6.69
2018-03-08T05:17:11.234Z,6.74
2018-03-08T05:18:11.266Z,6.79
2018-03-08T05:19:11.219Z,6.82
2018-03-08T05:20:12.104Z,6.78
2018-03-08T05:21:11.240Z,6.97
2018-03-08T05:22:11.256Z,6.99
2018-03-08T05:23:11.278Z,7.02
2018-03-08T05:24:11.289Z,6.93
2018-03-08T05:25:11.302Z,6.95
2018-03-08T05:26:11.316Z,6.85
2018-03-08T05:27:11.372Z,6.79
2018-03-08T05:28:11.350Z,6.72
2018-03-08T05:29:11.361Z,6.77
2018-03-08T05:30:11.390Z,6.79
2018-03-08T05:31:11.458Z,6.79
2018-03-08T05:32:11.442Z,6.92
2018-03-08T05:33:11.431Z,7.06
2018-03-08T05:34:11.459Z,6.96
2018-03-08T05:35:11.455Z,6.99
2018-03-08T05:36:11.471Z,7.11
2018-03-08T05:37:11.533Z,6.79
2018-03-08T05:38:11.507Z,7.02
2018-03-08T05:39:11.558Z,7.13
2018-03-08T05:40:11.526Z,7.17
2018-03-08T05:41:11.545Z,7.18
2018-03-08T05:42:11.557Z,7.05
2018-03-08T05:43:11.568Z,7.06
2018-03-08T05:44:11.590Z,7.15
2018-03-08T05:45:11.627Z,7.29
2018-03-08T05:46:11.634Z,7.28
2018-03-08T05:47:11.624Z,7.28
2018-03-08T05:48:11.659Z,7.10
2018-03-08T05:49:11.759Z,7.18
2018-03-08T05:50:11.685Z,7.18
2018-03-08T05:51:11.689Z,6.95
2018-03-08T05:52:11.711Z,6.85
2018-03-08T05:53:11.720Z,7.11
2018-03-08T05:54:11.747Z,6.87
2018-03-08T05:55:11.742Z,6.87
2018-03-08T05:56:11.769Z,6.77
2018-03-08T05:57:11.776Z,6.93
2018-03-08T05:58:11.788Z,7.07
2018-03-08T05:59:11.823Z,7.13
2018-03-08T06:00:11.864Z,6.97
2018-03-08T06:01:11.871Z,7.15
2018-03-08T06:02:11.852Z,7.21
2018-03-08T06:03:11.871Z,7.21
2018-03-08T06:04:11.888Z,7.11
2018-03-08T06:05:11.934Z,6.99
2018-03-08T06:06:11.912Z,6.89
2018-03-08T06:07:11.953Z,6.81
2018-03-08T06:08:11.944Z,6.77
2018-03-08T06:09:11.975Z,6.81
2018-03-08T06:10:11.999Z,6.78
2018-03-08T06:11:11.999Z,6.93
2018-03-08T06:12:12.001Z,6.81
2018-03-08T06:13:12.054Z,6.82
2018-03-08T06:14:12.034Z,6.92
2018-03-08T06:15:12.076Z,6.84
2018-03-08T06:16:12.056Z,6.88
2018-03-08T06:17:12.100Z,6.78
2018-03-08T06:18:12.104Z,6.78
2018-03-08T06:19:12.141Z,6.54
2018-03-08T06:20:12.134Z,6.63
2018-03-08T06:21:12.165Z,6.63
2018-03-08T06:22:12.194Z,6.62
2018-03-08T06:23:12.174Z,6.63
2018-03-08T06:24:12.206Z,6.67
2018-03-08T06:25:12.204Z,6.60
2018-03-08T06:26:12.244Z,6.79
2018-03-08T06:27:12.231Z,6.85
2018-03-08T06:28:12.242Z,6.74
2018-03-08T06:29:12.263Z,6.87
2018-03-08T06:30:12.264Z,6.95
2018-03-08T06:31:12.286Z,7.10
2018-03-08T06:32:12.301Z,6.97
2018-03-08T06:33:12.328Z,7.14
2018-03-08T06:34:12.325Z,6.89
2018-03-08T06:35:12.344Z,6.96
2018-03-08T06:36:12.381Z,6.89
2018-03-08T06:37:12.379Z,6.85
2018-03-08T06:38:12.386Z,6.92
2018-03-08T06:39:12.437Z,6.82
2018-03-08T06:40:12.415Z,6.70
2018-03-08T06:41:12.462Z,6.95
2018-03-08T06:42:12.453Z,6.84
2018-03-08T06:43:12.469Z,6.82
2018-03-08T06:44:12.477Z,6.96
2018-03-08T06:45:12.490Z,6.99
2018-03-08T06:46:12.509Z,7.13
2018-03-08T06:47:12.513Z,7.07
2018-03-08T06:48:12.599Z,7.23
2018-03-08T06:49:12.548Z,7.03
2018-03-08T06:50:12.578Z,6.97
2018-03-08T06:51:12.605Z,7.13
2018-03-08T06:52:12.667Z,7.13
2018-03-08T06:53:12.617Z,7.31
2018-03-08T06:54:12.634Z,7.39
2018-03-08T06:55:12.650Z,7.23
2018-03-08T06:56:12.662Z,7.18
2018-03-08T06:57:12.682Z,7.21
2018-03-08T06:58:12.698Z,7.39
2018-03-08T06:59:12.705Z,7.31
2018-03-08T07:00:12.721Z,7.38
2018-03-08T07:01:12.734Z,7.53
2018-03-08T07:02:12.769Z,7.61
2018-03-08T07:03:12.760Z,7.54
2018-03-08T07:04:12.802Z,7.51
2018-03-08T07:05:12.803Z,7.58
2018-03-08T07:06:12.814Z,7.51
2018-03-08T07:07:12.821Z,7.18
2018-03-08T07:08:12.846Z,7.31
2018-03-08T07:09:12.855Z,7.40
2018-03-08T07:10:12.860Z,7.51
2018-03-08T07:11:12.897Z,7.51
2018-03-08T07:12:12.905Z,7.66
2018-03-08T07:13:13.034Z,7.47
2018-03-08T07:14:12.932Z,7.53
2018-03-08T07:15:12.944Z,7.54
2018-03-08T07:16:12.979Z,7.58
2018-03-08T07:17:13.069Z,7.43
2018-03-08T07:18:12.986Z,7.51
2018-03-08T07:19:13.003Z,7.39
2018-03-08T07:20:13.031Z,7.53
2018-03-08T07:21:13.074Z,7.35
2018-03-08T07:22:13.043Z,7.47
2018-03-08T07:23:13.060Z,7.67
2018-03-08T07:24:13.110Z,7.63
2018-03-08T07:25:13.093Z,7.76
2018-03-08T07:26:13.114Z,7.75
2018-03-08T07:27:13.163Z,7.77
2018-03-08T07:28:13.147Z,7.75
2018-03-08T07:29:13.154Z,7.80
2018-03-08T07:30:13.165Z,7.66
2018-03-08T07:31:13.195Z,7.60
2018-03-08T07:32:13.226Z,7.33
2018-03-08T07:33:13.268Z,7.35
2018-03-08T07:34:13.238Z,7.39
2018-03-08T07:35:13.271Z,7.47
2018-03-08T07:36:13.273Z,7.70
2018-03-08T07:37:13.281Z,7.69
2018-03-08T07:38:13.319Z,7.61
2018-03-08T07:39:13.328Z,7.63
2018-03-08T07:40:13.325Z,7.72
2018-03-08T07:41:13.366Z,7.77
2018-03-08T07:42:13.358Z,7.82
2018-03-08T07:43:13.368Z,7.93
2018-03-08T07:44:13.390Z,7.85
2018-03-08T07:45:13.410Z,7.76
2018-03-08T07:46:13.417Z,7.66
2018-03-08T07:47:13.469Z,7.53
2018-03-08T07:48:13.444Z,7.58
2018-03-08T07:49:13.465Z,7.47
2018-03-08T07:50:13.480Z,7.66
2018-03-08T07:51:13.507Z,7.58
2018-03-08T07:52:13.544Z,7.47
2018-03-08T07:53:13.531Z,7.43
2018-03-08T07:54:13.551Z,7.67
2018-03-08T07:55:13.547Z,7.82
2018-03-08T07:56:13.572Z,7.85
2018-03-08T07:57:13.610Z,7.91
2018-03-08T07:58:13.636Z,7.69
2018-03-08T07:59:13.624Z,7.82
2018-03-08T08:00:13.649Z,7.85
2018-03-08T08:01:13.647Z,7.98
2018-03-08T08:02:13.735Z,8.19
2018-03-08T08:03:13.682Z,8.28
2018-03-08T08:04:13.706Z,8.34
2018-03-08T08:05:13.706Z,8.52
2018-03-08T08:06:13.729Z,8.42
2018-03-08T08:07:13.829Z,8.33
2018-03-08T08:08:13.755Z,8.23
2018-03-08T08:09:13.767Z,8.20
2018-03-08T08:10:13.875Z,8.34
2018-03-08T08:11:13.818Z,8.28
2018-03-08T08:12:13.854Z,8.78
2018-03-08T08:13:13.863Z,9.06
2018-03-08T08:14:13.850Z,9.23
2018-03-08T08:15:13.870Z,9.82
2018-03-08T08:16:13.913Z,10.17
2018-03-08T08:17:13.904Z,10.20
2018-03-08T08:18:13.919Z,10.35
2018-03-08T08:19:13.936Z,10.69
2018-03-08T08:20:13.971Z,10.90
2018-03-08T08:21:13.967Z,11.35
2018-03-08T08:22:14.001Z,11.68
2018-03-08T08:23:13.999Z,12.39
2018-03-08T08:24:14.054Z,12.97
2018-03-08T08:25:14.057Z,13.71
2018-03-08T08:26:14.064Z,14.26
2018-03-08T08:27:14.092Z,14.66
2018-03-08T08:28:14.117Z,14.77
2018-03-08T08:29:14.113Z,14.53
2018-03-08T08:30:14.141Z,15.00
2018-03-08T08:31:14.176Z,14.68
2018-03-08T08:32:14.165Z,14.28
2018-03-08T08:33:14.186Z,14.58
2018-03-08T08:34:14.245Z,14.22
2018-03-08T08:35:14.269Z,14.30
2018-03-08T08:36:14.235Z,13.71
2018-03-08T08:37:14.280Z,13.39
2018-03-08T08:38:14.304Z,13.31
2018-03-08T08:39:14.300Z,13.72
2018-03-08T08:40:14.351Z,13.57
2018-03-08T08:41:14.374Z,13.41
2018-03-08T08:42:14.384Z,12.25
2018-03-08T08:43:14.379Z,12.62
2018-03-08T08:44:14.396Z,12.90
2018-03-08T08:45:14.415Z,12.70
2018-03-08T08:46:14.433Z,12.45
2018-03-08T08:47:14.483Z,12.73
2018-03-08T08:48:14.483Z,12.65
2018-03-08T08:49:14.486Z,12.28
2018-03-08T08:50:14.506Z,12.02
2018-03-08T08:51:14.541Z,12.24
2018-03-08T08:52:14.550Z,12.12
2018-03-08T08:53:14.587Z,11.94
2018-03-08T08:54:14.580Z,12.02
2018-03-08T08:55:14.615Z,11.94
2018-03-08T08:56:14.630Z,11.70
2018-03-08T08:57:14.636Z,11.50
2018-03-08T08:58:14.657Z,11.57
2018-03-08T08:59:14.705Z,11.83
2018-03-08T09:00:14.710Z,11.10
2018-03-08T09:01:14.727Z,11.15
2018-03-08T09:02:14.749Z,11.36
2018-03-08T09:03:14.741Z,11.14
2018-03-08T09:04:14.770Z,11.17
2018-03-08T09:05:14.783Z,11.12
2018-03-08T09:06:14.895Z,11.30
2018-03-08T09:07:14.946Z,11.33
2018-03-08T09:08:14.956Z,10.92
2018-03-08T09:09:14.858Z,10.97
2018-03-08T09:10:14.873Z,10.79
2018-03-08T09:11:14.893Z,10.96
2018-03-08T09:12:14.924Z,10.68
2018-03-08T09:13:14.924Z,10.71
2018-03-08T09:14:14.975Z,10.59
2018-03-08T09:15:14.992Z,10.60
2018-03-08T09:16:14.971Z,10.61
2018-03-08T09:17:15.002Z,10.68
2018-03-08T09:18:15.021Z,10.69
2018-03-08T09:19:15.052Z,10.69
2018-03-08T09:20:15.081Z,10.51
2018-03-08T09:21:15.105Z,10.51
2018-03-08T09:22:15.083Z,10.41
2018-03-08T09:23:15.137Z,10.59
2018-03-08T09:24:15.121Z,10.92
2018-03-08T09:25:15.146Z,11.15
2018-03-08T09:26:15.141Z,11.11
2018-03-08T09:27:15.163Z,10.84
2018-03-08T09:28:15.184Z,11.00
2018-03-08T09:29:15.229Z,11.18
2018-03-08T09:30:15.214Z,11.32
2018-03-08T09:31:15.253Z,11.25
2018-03-08T09:32:15.299Z,10.96
2018-03-08T09:33:15.278Z,10.81
2018-03-08T09:34:15.305Z,11.00
2018-03-08T09:35:15.317Z,10.94
2018-03-08T09:36:15.337Z,10.94
2018-03-08T09:37:15.336Z,10.92
2018-03-08T09:38:15.356Z,10.84
2018-03-08T09:39:15.382Z,10.89
2018-03-08T09:40:15.400Z,11.10
2018-03-08T09:41:15.415Z,11.12
2018-03-08T09:42:15.439Z,11.50
2018-03-08T09:43:15.442Z,11.51
2018-03-08T09:44:15.489Z,11.50
2018-03-08T09:45:15.474Z,11.50
2018-03-08T09:46:15.498Z,11.41
2018-03-08T09:47:15.530Z,11.57
2018-03-08T09:48:15.559Z,11.51
2018-03-08T09:49:15.552Z,11.44
2018-03-08T09:50:15.572Z,11.50
2018-03-08T09:51:15.580Z,11.32
2018-03-08T09:52:15.636Z,11.19
2018-03-08T09:53:15.629Z,10.96
2018-03-08T09:54:15.670Z,10.96
2018-03-08T09:55:15.654Z,10.61
2018-03-08T09:56:15.695Z,10.68
2018-03-08T09:57:15.686Z,10.75
2018-03-08T09:58:15.708Z,10.78
2018-03-08T09:59:15.730Z,10.69
2018-03-08T10:00:15.810Z,10.71
2018-03-08T10:01:15.763Z,10.46
2018-03-08T10:02:15.770Z,10.59
2018-03-08T10:03:15.806Z,10.15
2018-03-08T10:04:15.839Z,10.35
2018-03-08T10:05:15.842Z,10.35
2018-03-08T10:06:15.840Z,10.48
2018-03-08T10:07:15.856Z,10.41
2018-03-08T10:08:15.942Z,10.72
2018-03-08T10:09:15.896Z,10.68
2018-03-08T10:10:15.913Z,10.57
2018-03-08T10:11:15.929Z,10.57
2018-03-08T10:12:15.962Z,10.44
2018-03-08T10:13:15.960Z,10.86
2018-03-08T10:14:16.013Z,10.69
2018-03-08T10:15:16.004Z,10.67
2018-03-08T10:16:16.011Z,10.92
2018-03-08T10:17:16.055Z,10.79
2018-03-08T10:18:16.099Z,10.61
2018-03-08T10:19:16.090Z,10.81
2018-03-08T10:20:16.106Z,10.94
2018-03-08T10:21:16.112Z,11.25
2018-03-08T10:22:16.125Z,11.19
2018-03-08T10:23:16.156Z,11.07
2018-03-08T10:24:16.188Z,11.14
2018-03-08T10:25:16.166Z,11.41
2018-03-08T10:26:16.193Z,11.44
2018-03-08T10:27:16.209Z,11.29
2018-03-08T10:28:16.221Z,11.33
2018-03-08T10:29:16.237Z,11.41
2018-03-08T10:30:16.250Z,11.27
2018-03-08T10:31:16.310Z,11.55
2018-03-08T10:32:16.308Z,11.68
2018-03-08T10:33:16.384Z,11.43
2018-03-08T10:34:16.353Z,11.60
2018-03-08T10:35:44.055Z,11.51
2018-03-08T10:36:16.358Z,11.70
2018-03-08T10:37:16.409Z,12.06
2018-03-08T10:38:16.419Z,12.31
2018-03-08T10:40:16.439Z,11.59
2018-03-08T10:41:16.591Z,11.86
2018-03-08T10:42:16.458Z,11.86
2018-03-08T10:43:16.489Z,12.00
2018-03-08T10:44:16.597Z,12.06
2018-03-08T10:45:16.512Z,11.78
2018-03-08T10:46:16.544Z,11.81
2018-03-08T10:47:16.548Z,12.15
2018-03-08T10:48:16.569Z,12.00
2018-03-08T10:49:16.640Z,12.17
2018-03-08T10:50:16.762Z,12.28
2018-03-08T10:51:16.832Z,12.31
2018-03-08T10:52:16.741Z,12.20
2018-03-08T10:53:16.693Z,11.72
2018-03-08T10:54:16.725Z,11.86
2018-03-08T10:55:16.692Z,11.70
2018-03-08T10:56:16.726Z,11.68
2018-03-08T10:57:16.761Z,11.91
2018-03-08T10:58:16.752Z,11.69
2018-03-08T10:59:16.779Z,12.07
2018-03-08T11:00:16.782Z,12.47
2018-03-08T11:01:16.824Z,12.98
2018-03-08T11:02:16.815Z,12.32
2018-03-08T11:03:16.871Z,12.83
2018-03-08T11:04:16.942Z,12.72
2018-03-08T11:05:16.873Z,12.87
2018-03-08T11:06:16.893Z,12.64
2018-03-08T11:07:16.918Z,12.53
2018-03-08T11:08:16.926Z,12.78
2018-03-08T11:09:16.943Z,12.57
2018-03-08T11:10:16.973Z,12.54
2018-03-08T11:11:17.058Z,12.35
2018-03-08T11:12:17.034Z,12.28
2018-03-08T11:13:17.015Z,12.31
2018-03-08T11:14:17.042Z,12.25
2018-03-08T11:15:17.115Z,11.95
2018-03-08T11:16:17.083Z,12.17
2018-03-08T11:17:17.097Z,12.04
2018-03-08T11:18:17.382Z,11.80
2018-03-08T11:19:17.143Z,11.69
2018-03-08T11:20:17.154Z,12.21
2018-03-08T11:21:17.234Z,12.39
2018-03-08T11:22:17.234Z,12.46
2018-03-08T11:23:17.231Z,12.36
2018-03-08T11:24:17.231Z,12.03
2018-03-08T11:25:17.255Z,12.40
2018-03-08T11:26:17.250Z,12.68
2018-03-08T11:27:17.274Z,12.27
2018-03-08T11:28:17.331Z,12.43
2018-03-08T11:29:17.324Z,12.65
2018-03-08T11:30:17.350Z,12.83
2018-03-08T11:31:17.363Z,12.65
2018-03-08T11:32:17.416Z,12.91
2018-03-08T11:33:17.374Z,13.19
2018-03-08T11:34:17.416Z,13.23
2018-03-08T11:35:17.431Z,13.13
2018-03-08T11:36:17.470Z,13.11
2018-03-08T11:37:17.459Z,13.11
2018-03-08T11:38:17.467Z,13.15
2018-03-08T11:39:17.498Z,13.08
2018-03-08T11:40:17.506Z,13.25
2018-03-08T11:41:17.534Z,12.37
2018-03-08T11:42:17.568Z,12.43
2018-03-08T11:43:17.568Z,12.55
2018-03-08T11:44:17.608Z,12.46
2018-03-08T11:45:17.598Z,12.28
2018-03-08T11:46:17.623Z,11.78
2018-03-08T11:47:17.638Z,11.80
2018-03-08T11:48:17.653Z,12.21
2018-03-08T11:49:17.685Z,12.02
2018-03-08T11:50:17.682Z,11.50
2018-03-08T11:51:17.704Z,11.54
2018-03-08T11:52:17.778Z,11.41
2018-03-08T11:53:17.761Z,11.47
2018-03-08T11:54:17.768Z,11.60
2018-03-08T11:55:17.864Z,11.47
2018-03-08T11:56:17.944Z,11.50
2018-03-08T11:57:17.852Z,11.66
2018-03-08T11:58:18.025Z,11.68
2018-03-08T11:59:17.846Z,11.36
2018-03-08T12:00:17.915Z,11.48
2018-03-08T12:01:17.882Z,11.72
2018-03-08T12:02:17.905Z,11.86
2018-03-08T12:03:17.915Z,11.41
2018-03-08T12:04:17.928Z,11.44
2018-03-08T12:05:17.959Z,11.62
2018-03-08T12:06:18.062Z,11.99
2018-03-08T12:07:17.996Z,12.18
2018-03-08T12:08:18.107Z,12.25
2018-03-08T12:09:18.026Z,12.54
2018-03-08T12:10:18.056Z,12.57
2018-03-08T12:11:18.093Z,12.40
2018-03-08T12:12:18.093Z,12.45
2018-03-08T12:13:18.105Z,12.45
2018-03-08T12:14:18.164Z,12.32
2018-03-08T12:15:18.172Z,12.32
2018-03-08T12:16:18.191Z,12.35
2018-03-08T12:17:18.221Z,12.25
2018-03-08T12:18:18.199Z,12.42
2018-03-08T12:19:18.205Z,12.21
2018-03-08T12:20:18.232Z,12.10
2018-03-08T12:21:18.240Z,11.83
2018-03-08T12:22:18.270Z,12.24
2018-03-08T12:23:18.308Z,11.97
2018-03-08T12:24:18.323Z,11.91
2018-03-08T12:25:18.404Z,11.66
2018-03-08T12:26:18.398Z,12.12
2018-03-08T12:27:18.366Z,12.20
2018-03-08T12:28:18.358Z,12.13
2018-03-08T12:29:18.402Z,12.04
2018-03-08T12:30:18.406Z,12.03
2018-03-08T12:31:18.422Z,12.15
2018-03-08T12:32:18.515Z,12.18
2018-03-08T12:33:18.513Z,12.18
2018-03-08T12:34:18.502Z,12.17
2018-03-08T12:35:18.541Z,12.40
2018-03-08T12:36:33.052Z,12.39
2018-03-08T12:37:18.565Z,12.62
2018-03-08T12:38:18.568Z,12.65
2018-03-08T12:39:18.560Z,12.91
2018-03-08T12:40:18.578Z,13.08
2018-03-08T12:41:18.617Z,13.09
2018-03-08T12:42:18.639Z,12.98
2018-03-08T12:43:18.650Z,12.62
2018-03-08T12:44:18.680Z,12.76
2018-03-08T12:45:18.675Z,12.85
2018-03-08T12:46:18.684Z,12.75
2018-03-08T12:47:18.729Z,12.58
2018-03-08T12:48:18.731Z,12.22
2018-03-08T12:49:18.806Z,11.72
2018-03-08T12:50:18.811Z,11.52
2018-03-08T12:51:18.822Z,11.54
2018-03-08T12:52:18.808Z,11.59
2018-03-08T12:53:18.848Z,11.44
2018-03-08T12:54:18.839Z,11.60
2018-03-08T12:55:18.853Z,11.88
2018-03-08T12:56:18.861Z,12.17
2018-03-08T12:57:18.934Z,12.29
2018-03-08T12:58:18.936Z,12.22
2018-03-08T12:59:18.920Z,12.06
2018-03-08T13:00:18.977Z,11.81
2018-03-08T13:01:18.983Z,11.86
2018-03-08T13:02:18.976Z,12.15
2018-03-08T13:03:18.989Z,12.57
2018-03-08T13:04:19.098Z,12.90
2018-03-08T13:05:19.043Z,12.83
2018-03-08T13:06:19.056Z,12.29
2018-03-08T13:07:19.062Z,12.97
2018-03-08T13:08:19.147Z,13.12
2018-03-08T13:09:19.158Z,13.05